sensor_id;sensor_type;location;lat;lon;timestamp;temperature;humidity
78649;DHT22;67962;47.310;9.642;2023-04-15T00:01:25;6.30;63.00
78649;DHT22;67962;47.310;9.642;2023-04-15T00:03:52;6.40;63.20
78649;DHT22;67962;47.310;9.642;2023-04-15T00:06:21;6.30;63.30
78649;DHT22;67962;47.310;9.642;2023-04-15T00:08:48;6.20;63.70
78649;DHT22;67962;47.310;9.642;2023-04-15T00:11:15;6.40;63.10
78649;DHT22;67962;47.310;9.642;2023-04-15T00:13:41;6.30;63.10
78649;DHT22;67962;47.310;9.642;2023-04-15T00:16:09;6.30;63.20
78649;DHT22;67962;47.310;9.642;2023-04-15T00:18:36;6.20;63.30
78649;DHT22;67962;47.310;9.642;2023-04-15T00:21:03;6.30;63.20
78649;DHT22;67962;47.310;9.642;2023-04-15T00:23:29;6.30;62.70
78649;DHT22;67962;47.310;9.642;2023-04-15T00:25:55;6.40;62.50
78649;DHT22;67962;47.310;9.642;2023-04-15T00:28:21;6.30;62.80
78649;DHT22;67962;47.310;9.642;2023-04-15T00:30:47;6.30;63.00
78649;DHT22;67962;47.310;9.642;2023-04-15T00:33:13;6.30;63.00
78649;DHT22;67962;47.310;9.642;2023-04-15T00:35:40;6.20;63.40
78649;DHT22;67962;47.310;9.642;2023-04-15T00:38:06;6.20;63.30
78649;DHT22;67962;47.310;9.642;2023-04-15T00:40:35;6.10;63.10
78649;DHT22;67962;47.310;9.642;2023-04-15T00:43:01;6.00;63.30
78649;DHT22;67962;47.310;9.642;2023-04-15T00:45:27;6.00;63.50
78649;DHT22;67962;47.310;9.642;2023-04-15T00:47:53;6.00;63.80
78649;DHT22;67962;47.310;9.642;2023-04-15T00:50:20;6.00;63.60
78649;DHT22;67962;47.310;9.642;2023-04-15T00:52:45;6.10;63.60
78649;DHT22;67962;47.310;9.642;2023-04-15T00:55:11;6.00;62.90
78649;DHT22;67962;47.310;9.642;2023-04-15T00:57:38;6.00;63.40
78649;DHT22;67962;47.310;9.642;2023-04-15T01:00:06;6.00;63.40
78649;DHT22;67962;47.310;9.642;2023-04-15T01:02:34;6.00;63.30
78649;DHT22;67962;47.310;9.642;2023-04-15T01:05:00;6.00;63.70
78649;DHT22;67962;47.310;9.642;2023-04-15T01:07:25;6.00;63.40
78649;DHT22;67962;47.310;9.642;2023-04-15T01:09:52;5.90;63.60
78649;DHT22;67962;47.310;9.642;2023-04-15T01:12:18;6.00;63.80
78649;DHT22;67962;47.310;9.642;2023-04-15T01:14:45;6.00;63.60
78649;DHT22;67962;47.310;9.642;2023-04-15T01:17:11;6.10;63.40
78649;DHT22;67962;47.310;9.642;2023-04-15T01:19:38;6.00;62.70
78649;DHT22;67962;47.310;9.642;2023-04-15T01:22:04;5.90;62.70
78649;DHT22;67962;47.310;9.642;2023-04-15T01:24:31;5.80;62.80
78649;DHT22;67962;47.310;9.642;2023-04-15T01:26:57;5.80;63.50
78649;DHT22;67962;47.310;9.642;2023-04-15T01:29:23;5.70;63.30
78649;DHT22;67962;47.310;9.642;2023-04-15T01:31:53;5.70;63.30
78649;DHT22;67962;47.310;9.642;2023-04-15T01:34:20;5.90;63.00
78649;DHT22;67962;47.310;9.642;2023-04-15T01:36:47;5.90;63.10
78649;DHT22;67962;47.310;9.642;2023-04-15T01:39:13;5.80;62.90
78649;DHT22;67962;47.310;9.642;2023-04-15T01:41:39;5.80;63.20
78649;DHT22;67962;47.310;9.642;2023-04-15T01:44:07;5.70;62.30
78649;DHT22;67962;47.310;9.642;2023-04-15T01:46:33;5.80;62.60
78649;DHT22;67962;47.310;9.642;2023-04-15T01:48:59;5.80;62.30
78649;DHT22;67962;47.310;9.642;2023-04-15T01:51:25;5.90;62.20
78649;DHT22;67962;47.310;9.642;2023-04-15T01:53:52;5.90;62.30
78649;DHT22;67962;47.310;9.642;2023-04-15T01:56:17;6.00;62.40
78649;DHT22;67962;47.310;9.642;2023-04-15T01:58:43;5.90;62.60
78649;DHT22;67962;47.310;9.642;2023-04-15T02:01:09;5.90;62.70
78649;DHT22;67962;47.310;9.642;2023-04-15T02:03:37;5.90;62.60
78649;DHT22;67962;47.310;9.642;2023-04-15T02:06:03;5.90;62.00
78649;DHT22;67962;47.310;9.642;2023-04-15T02:08:30;5.90;62.00
78649;DHT22;67962;47.310;9.642;2023-04-15T02:10:56;5.80;62.30
78649;DHT22;67962;47.310;9.642;2023-04-15T02:13:21;5.80;62.70
78649;DHT22;67962;47.310;9.642;2023-04-15T02:15:48;5.70;62.40
78649;DHT22;67962;47.310;9.642;2023-04-15T02:18:15;5.70;63.00
78649;DHT22;67962;47.310;9.642;2023-04-15T02:20:41;5.60;63.20
78649;DHT22;67962;47.310;9.642;2023-04-15T02:23:08;5.60;63.00
78649;DHT22;67962;47.310;9.642;2023-04-15T02:25:34;5.60;63.00
78649;DHT22;67962;47.310;9.642;2023-04-15T02:27:59;5.60;63.00
78649;DHT22;67962;47.310;9.642;2023-04-15T02:30:25;5.50;63.20
78649;DHT22;67962;47.310;9.642;2023-04-15T02:32:51;5.60;63.30
78649;DHT22;67962;47.310;9.642;2023-04-15T02:35:17;5.50;63.40
78649;DHT22;67962;47.310;9.642;2023-04-15T02:37:46;5.50;63.50
78649;DHT22;67962;47.310;9.642;2023-04-15T02:40:12;5.50;63.90
78649;DHT22;67962;47.310;9.642;2023-04-15T02:42:41;5.30;63.50
78649;DHT22;67962;47.310;9.642;2023-04-15T02:45:08;5.30;64.00
78649;DHT22;67962;47.310;9.642;2023-04-15T02:47:34;5.30;64.30
78649;DHT22;67962;47.310;9.642;2023-04-15T02:50:02;5.30;64.10
78649;DHT22;67962;47.310;9.642;2023-04-15T02:52:28;5.20;64.20
78649;DHT22;67962;47.310;9.642;2023-04-15T02:54:53;5.10;64.70
78649;DHT22;67962;47.310;9.642;2023-04-15T02:57:26;5.10;65.10
78649;DHT22;67962;47.310;9.642;2023-04-15T02:59:53;5.10;65.10
78649;DHT22;67962;47.310;9.642;2023-04-15T03:02:18;5.20;64.50
78649;DHT22;67962;47.310;9.642;2023-04-15T03:04:44;5.10;64.60
78649;DHT22;67962;47.310;9.642;2023-04-15T03:07:10;5.20;64.60
78649;DHT22;67962;47.310;9.642;2023-04-15T03:09:36;5.20;64.50
78649;DHT22;67962;47.310;9.642;2023-04-15T03:12:04;5.20;63.80
78649;DHT22;67962;47.310;9.642;2023-04-15T03:14:30;5.10;63.60
78649;DHT22;67962;47.310;9.642;2023-04-15T03:16:55;5.10;63.90
78649;DHT22;67962;47.310;9.642;2023-04-15T03:19:21;5.20;64.20
78649;DHT22;67962;47.310;9.642;2023-04-15T03:21:47;5.20;64.10
78649;DHT22;67962;47.310;9.642;2023-04-15T03:24:13;5.30;64.00
78649;DHT22;67962;47.310;9.642;2023-04-15T03:26:38;5.30;63.80
78649;DHT22;67962;47.310;9.642;2023-04-15T03:29:04;5.40;63.30
78649;DHT22;67962;47.310;9.642;2023-04-15T03:31:30;5.50;63.50
78649;DHT22;67962;47.310;9.642;2023-04-15T03:33:56;5.50;63.10
78649;DHT22;67962;47.310;9.642;2023-04-15T03:36:22;5.50;63.00
78649;DHT22;67962;47.310;9.642;2023-04-15T03:38:48;5.50;63.10
78649;DHT22;67962;47.310;9.642;2023-04-15T03:41:14;5.50;62.90
78649;DHT22;67962;47.310;9.642;2023-04-15T03:43:40;5.50;62.80
78649;DHT22;67962;47.310;9.642;2023-04-15T03:46:06;5.50;62.70
78649;DHT22;67962;47.310;9.642;2023-04-15T03:48:31;5.50;63.00
78649;DHT22;67962;47.310;9.642;2023-04-15T03:50:57;5.40;63.10
78649;DHT22;67962;47.310;9.642;2023-04-15T03:53:23;5.30;63.00
78649;DHT22;67962;47.310;9.642;2023-04-15T03:55:48;5.30;63.50
78649;DHT22;67962;47.310;9.642;2023-04-15T03:58:14;5.10;63.60
78649;DHT22;67962;47.310;9.642;2023-04-15T04:00:40;5.00;64.10
78649;DHT22;67962;47.310;9.642;2023-04-15T04:03:06;5.00;64.10
78649;DHT22;67962;47.310;9.642;2023-04-15T04:05:33;4.90;64.50
78649;DHT22;67962;47.310;9.642;2023-04-15T04:08:01;4.90;64.40
78649;DHT22;67962;47.310;9.642;2023-04-15T04:10:27;4.90;64.40
78649;DHT22;67962;47.310;9.642;2023-04-15T04:12:52;4.90;64.70
78649;DHT22;67962;47.310;9.642;2023-04-15T04:15:18;4.90;64.50
78649;DHT22;67962;47.310;9.642;2023-04-15T04:17:44;5.00;64.00
78649;DHT22;67962;47.310;9.642;2023-04-15T04:20:10;5.00;63.70
78649;DHT22;67962;47.310;9.642;2023-04-15T04:22:39;4.90;64.00
78649;DHT22;67962;47.310;9.642;2023-04-15T04:25:06;4.90;64.40
78649;DHT22;67962;47.310;9.642;2023-04-15T04:27:33;4.80;64.60
78649;DHT22;67962;47.310;9.642;2023-04-15T04:29:59;4.90;64.40
78649;DHT22;67962;47.310;9.642;2023-04-15T04:32:25;4.90;64.30
78649;DHT22;67962;47.310;9.642;2023-04-15T04:34:50;4.80;64.50
78649;DHT22;67962;47.310;9.642;2023-04-15T04:37:16;4.70;64.90
78649;DHT22;67962;47.310;9.642;2023-04-15T04:39:42;4.70;65.00
78649;DHT22;67962;47.310;9.642;2023-04-15T04:42:08;4.70;65.30
78649;DHT22;67962;47.310;9.642;2023-04-15T04:44:33;4.80;64.60
78649;DHT22;67962;47.310;9.642;2023-04-15T04:46:59;4.80;64.70
78649;DHT22;67962;47.310;9.642;2023-04-15T04:49:25;4.80;64.60
78649;DHT22;67962;47.310;9.642;2023-04-15T04:51:51;4.80;64.80
78649;DHT22;67962;47.310;9.642;2023-04-15T04:54:16;4.90;64.30
78649;DHT22;67962;47.310;9.642;2023-04-15T04:56:42;4.80;65.50
78649;DHT22;67962;47.310;9.642;2023-04-15T04:59:08;4.80;64.40
78649;DHT22;67962;47.310;9.642;2023-04-15T05:01:34;4.90;64.40
78649;DHT22;67962;47.310;9.642;2023-04-15T05:04:00;4.90;64.30
78649;DHT22;67962;47.310;9.642;2023-04-15T05:06:25;5.00;64.30
78649;DHT22;67962;47.310;9.642;2023-04-15T05:08:52;5.00;64.10
78649;DHT22;67962;47.310;9.642;2023-04-15T05:11:17;4.90;63.90
78649;DHT22;67962;47.310;9.642;2023-04-15T05:13:43;4.90;64.20
78649;DHT22;67962;47.310;9.642;2023-04-15T05:16:09;4.90;64.40
78649;DHT22;67962;47.310;9.642;2023-04-15T05:18:35;5.10;64.40
78649;DHT22;67962;47.310;9.642;2023-04-15T05:21:01;5.20;63.80
78649;DHT22;67962;47.310;9.642;2023-04-15T05:23:27;5.10;63.60
78649;DHT22;67962;47.310;9.642;2023-04-15T05:25:53;5.10;63.80
78649;DHT22;67962;47.310;9.642;2023-04-15T05:28:18;5.20;64.00
78649;DHT22;67962;47.310;9.642;2023-04-15T05:30:44;5.20;64.00
78649;DHT22;67962;47.310;9.642;2023-04-15T05:33:10;5.20;63.60
78649;DHT22;67962;47.310;9.642;2023-04-15T05:35:36;5.30;62.00
78649;DHT22;67962;47.310;9.642;2023-04-15T05:38:02;5.30;62.30
78649;DHT22;67962;47.310;9.642;2023-04-15T05:40:29;5.40;62.80
78649;DHT22;67962;47.310;9.642;2023-04-15T05:42:55;5.40;63.10
78649;DHT22;67962;47.310;9.642;2023-04-15T05:45:21;5.40;63.50
78649;DHT22;67962;47.310;9.642;2023-04-15T05:47:47;5.30;63.40
78649;DHT22;67962;47.310;9.642;2023-04-15T05:50:15;5.40;64.10
78649;DHT22;67962;47.310;9.642;2023-04-15T05:52:41;5.50;64.60
78649;DHT22;67962;47.310;9.642;2023-04-15T05:55:07;5.60;64.40
78649;DHT22;67962;47.310;9.642;2023-04-15T05:57:33;5.70;64.10
78649;DHT22;67962;47.310;9.642;2023-04-15T05:59:58;5.80;63.50
78649;DHT22;67962;47.310;9.642;2023-04-15T06:02:24;6.00;63.10
78649;DHT22;67962;47.310;9.642;2023-04-15T06:04:50;6.10;62.90
78649;DHT22;67962;47.310;9.642;2023-04-15T06:07:16;6.10;62.20
78649;DHT22;67962;47.310;9.642;2023-04-15T06:09:42;6.30;62.30
78649;DHT22;67962;47.310;9.642;2023-04-15T06:12:07;6.40;61.40
78649;DHT22;67962;47.310;9.642;2023-04-15T06:14:37;6.50;60.90
78649;DHT22;67962;47.310;9.642;2023-04-15T06:17:03;6.60;58.90
78649;DHT22;67962;47.310;9.642;2023-04-15T06:19:29;6.70;60.10
78649;DHT22;67962;47.310;9.642;2023-04-15T06:21:55;7.00;60.60
78649;DHT22;67962;47.310;9.642;2023-04-15T06:24:21;7.20;58.70
78649;DHT22;67962;47.310;9.642;2023-04-15T06:26:47;7.50;60.00
78649;DHT22;67962;47.310;9.642;2023-04-15T06:29:12;7.70;59.70
78649;DHT22;67962;47.310;9.642;2023-04-15T06:31:38;7.90;58.40
78649;DHT22;67962;47.310;9.642;2023-04-15T06:34:04;8.00;57.50
78649;DHT22;67962;47.310;9.642;2023-04-15T06:36:30;8.10;57.40
78649;DHT22;67962;47.310;9.642;2023-04-15T06:38:56;8.20;55.70
78649;DHT22;67962;47.310;9.642;2023-04-15T06:41:22;8.30;55.60
78649;DHT22;67962;47.310;9.642;2023-04-15T06:43:48;8.50;55.20
78649;DHT22;67962;47.310;9.642;2023-04-15T06:46:14;8.50;52.50
78649;DHT22;67962;47.310;9.642;2023-04-15T06:48:40;8.40;52.60
78649;DHT22;67962;47.310;9.642;2023-04-15T06:51:05;8.40;52.70
78649;DHT22;67962;47.310;9.642;2023-04-15T06:53:31;8.50;53.40
78649;DHT22;67962;47.310;9.642;2023-04-15T06:55:57;8.70;52.80
78649;DHT22;67962;47.310;9.642;2023-04-15T06:58:22;8.70;51.50
78649;DHT22;67962;47.310;9.642;2023-04-15T07:00:48;8.70;51.70
78649;DHT22;67962;47.310;9.642;2023-04-15T07:03:14;8.90;52.60
78649;DHT22;67962;47.310;9.642;2023-04-15T07:05:40;9.20;52.40
78649;DHT22;67962;47.310;9.642;2023-04-15T07:08:06;9.50;52.90
78649;DHT22;67962;47.310;9.642;2023-04-15T07:10:33;9.80;52.50
78649;DHT22;67962;47.310;9.642;2023-04-15T07:12:58;10.10;52.20
78649;DHT22;67962;47.310;9.642;2023-04-15T07:15:24;10.30;50.60
78649;DHT22;67962;47.310;9.642;2023-04-15T07:17:50;10.40;50.80
78649;DHT22;67962;47.310;9.642;2023-04-15T07:20:15;10.50;50.10
78649;DHT22;67962;47.310;9.642;2023-04-15T07:22:41;10.70;50.30
78649;DHT22;67962;47.310;9.642;2023-04-15T07:25:08;10.90;49.80
78649;DHT22;67962;47.310;9.642;2023-04-15T07:27:34;10.90;50.10
78649;DHT22;67962;47.310;9.642;2023-04-15T07:29:59;11.10;49.50
78649;DHT22;67962;47.310;9.642;2023-04-15T07:32:25;11.40;50.10
78649;DHT22;67962;47.310;9.642;2023-04-15T07:34:51;11.60;48.50
78649;DHT22;67962;47.310;9.642;2023-04-15T07:37:17;11.80;46.60
78649;DHT22;67962;47.310;9.642;2023-04-15T07:39:44;11.90;46.80
78649;DHT22;67962;47.310;9.642;2023-04-15T07:42:10;12.20;47.50
78649;DHT22;67962;47.310;9.642;2023-04-15T07:44:35;12.50;43.00
78649;DHT22;67962;47.310;9.642;2023-04-15T07:47:02;12.50;44.60
78649;DHT22;67962;47.310;9.642;2023-04-15T07:49:28;12.70;45.40
78649;DHT22;67962;47.310;9.642;2023-04-15T07:51:53;13.10;45.10
78649;DHT22;67962;47.310;9.642;2023-04-15T07:54:20;13.20;43.80
78649;DHT22;67962;47.310;9.642;2023-04-15T07:56:46;13.10;44.10
78649;DHT22;67962;47.310;9.642;2023-04-15T07:59:15;13.00;41.90
78649;DHT22;67962;47.310;9.642;2023-04-15T08:01:42;12.80;43.20
78649;DHT22;67962;47.310;9.642;2023-04-15T08:04:08;12.70;44.00
78649;DHT22;67962;47.310;9.642;2023-04-15T08:06:34;12.90;45.30
78649;DHT22;67962;47.310;9.642;2023-04-15T08:09:01;12.90;45.00
78649;DHT22;67962;47.310;9.642;2023-04-15T08:11:26;13.10;45.10
78649;DHT22;67962;47.310;9.642;2023-04-15T08:13:52;13.10;42.90
78649;DHT22;67962;47.310;9.642;2023-04-15T08:16:21;13.10;43.90
78649;DHT22;67962;47.310;9.642;2023-04-15T08:18:48;13.30;44.20
78649;DHT22;67962;47.310;9.642;2023-04-15T08:21:15;13.50;42.80
78649;DHT22;67962;47.310;9.642;2023-04-15T08:23:42;13.60;42.70
78649;DHT22;67962;47.310;9.642;2023-04-15T08:26:08;13.70;43.20
78649;DHT22;67962;47.310;9.642;2023-04-15T08:28:35;13.80;43.70
78649;DHT22;67962;47.310;9.642;2023-04-15T08:31:01;13.90;42.40
78649;DHT22;67962;47.310;9.642;2023-04-15T08:33:28;13.80;40.90
78649;DHT22;67962;47.310;9.642;2023-04-15T08:35:54;13.90;41.80
78649;DHT22;67962;47.310;9.642;2023-04-15T08:38:19;14.00;41.30
78649;DHT22;67962;47.310;9.642;2023-04-15T08:40:45;14.00;41.50
78649;DHT22;67962;47.310;9.642;2023-04-15T08:43:26;13.80;41.60
78649;DHT22;67962;47.310;9.642;2023-04-15T08:45:54;13.80;41.00
78649;DHT22;67962;47.310;9.642;2023-04-15T08:48:20;13.90;42.40
78649;DHT22;67962;47.310;9.642;2023-04-15T08:50:50;13.90;40.30
78649;DHT22;67962;47.310;9.642;2023-04-15T08:53:16;14.00;40.70
78649;DHT22;67962;47.310;9.642;2023-04-15T08:55:44;14.10;40.80
78649;DHT22;67962;47.310;9.642;2023-04-15T08:58:10;14.20;41.00
78649;DHT22;67962;47.310;9.642;2023-04-15T09:00:36;14.50;38.40
78649;DHT22;67962;47.310;9.642;2023-04-15T09:03:06;14.40;37.50
78649;DHT22;67962;47.310;9.642;2023-04-15T09:05:33;14.50;39.80
78649;DHT22;67962;47.310;9.642;2023-04-15T09:07:59;14.60;40.50
78649;DHT22;67962;47.310;9.642;2023-04-15T09:10:25;14.60;39.50
78649;DHT22;67962;47.310;9.642;2023-04-15T09:12:50;14.50;40.40
78649;DHT22;67962;47.310;9.642;2023-04-15T09:15:17;14.70;40.50
78649;DHT22;67962;47.310;9.642;2023-04-15T09:17:43;14.70;38.90
78649;DHT22;67962;47.310;9.642;2023-04-15T09:20:11;14.80;39.30
78649;DHT22;67962;47.310;9.642;2023-04-15T09:22:38;15.00;40.40
78649;DHT22;67962;47.310;9.642;2023-04-15T09:27:55;15.20;45.90
78649;DHT22;67962;47.310;9.642;2023-04-15T09:30:21;15.50;41.20
78649;DHT22;67962;47.310;9.642;2023-04-15T09:32:58;15.60;39.10
78649;DHT22;67962;47.310;9.642;2023-04-15T09:35:25;15.50;37.50
78649;DHT22;67962;47.310;9.642;2023-04-15T09:37:51;15.40;37.60
78649;DHT22;67962;47.310;9.642;2023-04-15T09:40:33;15.40;38.40
78649;DHT22;67962;47.310;9.642;2023-04-15T09:42:59;15.40;38.00
78649;DHT22;67962;47.310;9.642;2023-04-15T09:45:25;15.50;38.30
78649;DHT22;67962;47.310;9.642;2023-04-15T09:47:51;15.50;36.10
78649;DHT22;67962;47.310;9.642;2023-04-15T09:50:21;15.30;36.50
78649;DHT22;67962;47.310;9.642;2023-04-15T09:52:47;15.20;37.60
78649;DHT22;67962;47.310;9.642;2023-04-15T09:55:13;15.20;36.70
78649;DHT22;67962;47.310;9.642;2023-04-15T09:57:40;15.30;37.80
78649;DHT22;67962;47.310;9.642;2023-04-15T10:00:07;15.30;35.90
78649;DHT22;67962;47.310;9.642;2023-04-15T10:02:34;15.10;36.00
78649;DHT22;67962;47.310;9.642;2023-04-15T10:05:03;14.90;35.90
78649;DHT22;67962;47.310;9.642;2023-04-15T10:07:29;15.00;36.60
78649;DHT22;67962;47.310;9.642;2023-04-15T10:09:55;15.10;37.20
78649;DHT22;67962;47.310;9.642;2023-04-15T10:12:22;15.40;37.00
78649;DHT22;67962;47.310;9.642;2023-04-15T10:14:52;15.60;36.60
78649;DHT22;67962;47.310;9.642;2023-04-15T10:17:21;15.90;36.40
78649;DHT22;67962;47.310;9.642;2023-04-15T10:19:47;16.10;35.70
78649;DHT22;67962;47.310;9.642;2023-04-15T10:22:14;16.20;34.20
78649;DHT22;67962;47.310;9.642;2023-04-15T10:24:40;16.20;33.50
78649;DHT22;67962;47.310;9.642;2023-04-15T10:27:06;16.30;34.40
78649;DHT22;67962;47.310;9.642;2023-04-15T10:29:32;16.40;33.10
78649;DHT22;67962;47.310;9.642;2023-04-15T10:31:59;16.60;33.80
78649;DHT22;67962;47.310;9.642;2023-04-15T10:34:26;17.00;33.60
78649;DHT22;67962;47.310;9.642;2023-04-15T10:37:02;17.20;32.30
78649;DHT22;67962;47.310;9.642;2023-04-15T10:39:42;17.50;31.10
78649;DHT22;67962;47.310;9.642;2023-04-15T10:42:16;17.60;31.80
78649;DHT22;67962;47.310;9.642;2023-04-15T10:44:48;17.60;32.10
78649;DHT22;67962;47.310;9.642;2023-04-15T10:47:19;17.50;32.10
78649;DHT22;67962;47.310;9.642;2023-04-15T10:50:00;17.60;31.40
78649;DHT22;67962;47.310;9.642;2023-04-15T10:52:27;17.40;29.70
78649;DHT22;67962;47.310;9.642;2023-04-15T10:55:18;17.10;30.30
78649;DHT22;67962;47.310;9.642;2023-04-15T10:57:44;17.00;32.30
78649;DHT22;67962;47.310;9.642;2023-04-15T11:00:15;16.90;29.60
78649;DHT22;67962;47.310;9.642;2023-04-15T11:02:56;16.80;31.30
78649;DHT22;67962;47.310;9.642;2023-04-15T11:08:14;16.70;31.60
78649;DHT22;67962;47.310;9.642;2023-04-15T11:13:21;16.50;31.60
78649;DHT22;67962;47.310;9.642;2023-04-15T11:15:48;16.50;30.10
78649;DHT22;67962;47.310;9.642;2023-04-15T11:18:21;16.20;30.60
78649;DHT22;67962;47.310;9.642;2023-04-15T11:20:55;15.90;30.00
78649;DHT22;67962;47.310;9.642;2023-04-15T11:23:38;15.60;32.40
78649;DHT22;67962;47.310;9.642;2023-04-15T11:26:09;15.40;32.30
78649;DHT22;67962;47.310;9.642;2023-04-15T11:28:37;15.20;34.50
78649;DHT22;67962;47.310;9.642;2023-04-15T11:31:12;15.10;34.70
78649;DHT22;67962;47.310;9.642;2023-04-15T11:33:44;15.10;34.60
78649;DHT22;67962;47.310;9.642;2023-04-15T11:36:10;15.20;35.70
78649;DHT22;67962;47.310;9.642;2023-04-15T11:38:37;15.10;33.60
78649;DHT22;67962;47.310;9.642;2023-04-15T11:41:06;15.00;32.90
78649;DHT22;67962;47.310;9.642;2023-04-15T11:43:32;14.90;33.10
78649;DHT22;67962;47.310;9.642;2023-04-15T11:46:01;14.70;31.60
78649;DHT22;67962;47.310;9.642;2023-04-15T11:48:29;14.60;32.60
78649;DHT22;67962;47.310;9.642;2023-04-15T11:51:05;14.70;35.00
78649;DHT22;67962;47.310;9.642;2023-04-15T11:53:47;14.70;34.70
78649;DHT22;67962;47.310;9.642;2023-04-15T11:56:24;15.00;35.50
78649;DHT22;67962;47.310;9.642;2023-04-15T11:58:55;15.10;34.40
78649;DHT22;67962;47.310;9.642;2023-04-15T12:01:37;15.30;36.10
78649;DHT22;67962;47.310;9.642;2023-04-15T12:04:15;15.70;42.20
78649;DHT22;67962;47.310;9.642;2023-04-15T12:06:47;16.00;33.50
78649;DHT22;67962;47.310;9.642;2023-04-15T12:09:16;15.80;34.60
78649;DHT22;67962;47.310;9.642;2023-04-15T12:11:55;15.60;34.40
78649;DHT22;67962;47.310;9.642;2023-04-15T12:14:31;15.60;34.10
78649;DHT22;67962;47.310;9.642;2023-04-15T12:17:02;15.60;36.70
78649;DHT22;67962;47.310;9.642;2023-04-15T12:19:37;15.60;35.00
78649;DHT22;67962;47.310;9.642;2023-04-15T12:22:13;15.80;35.40
78649;DHT22;67962;47.310;9.642;2023-04-15T12:24:41;15.80;35.00
78649;DHT22;67962;47.310;9.642;2023-04-15T12:27:13;15.70;35.50
78649;DHT22;67962;47.310;9.642;2023-04-15T12:29:40;15.90;36.00
78649;DHT22;67962;47.310;9.642;2023-04-15T12:32:11;15.80;35.80
78649;DHT22;67962;47.310;9.642;2023-04-15T12:34:50;16.00;37.00
78649;DHT22;67962;47.310;9.642;2023-04-15T12:37:16;16.10;37.20
78649;DHT22;67962;47.310;9.642;2023-04-15T12:39:43;16.20;35.20
78649;DHT22;67962;47.310;9.642;2023-04-15T12:42:10;16.00;35.90
78649;DHT22;67962;47.310;9.642;2023-04-15T12:44:37;16.10;37.00
78649;DHT22;67962;47.310;9.642;2023-04-15T12:47:03;16.10;35.90
78649;DHT22;67962;47.310;9.642;2023-04-15T12:49:30;16.00;34.20
78649;DHT22;67962;47.310;9.642;2023-04-15T12:51:58;15.80;35.60
78649;DHT22;67962;47.310;9.642;2023-04-15T12:54:25;15.80;34.50
78649;DHT22;67962;47.310;9.642;2023-04-15T12:56:52;15.60;34.70
78649;DHT22;67962;47.310;9.642;2023-04-15T12:59:18;15.60;34.80
78649;DHT22;67962;47.310;9.642;2023-04-15T13:01:45;15.40;35.50
78649;DHT22;67962;47.310;9.642;2023-04-15T13:04:11;15.30;34.60
78649;DHT22;67962;47.310;9.642;2023-04-15T13:06:37;15.40;35.10
78649;DHT22;67962;47.310;9.642;2023-04-15T13:09:03;15.30;35.90
78649;DHT22;67962;47.310;9.642;2023-04-15T13:11:30;15.50;37.10
78649;DHT22;67962;47.310;9.642;2023-04-15T13:14:07;15.70;36.50
78649;DHT22;67962;47.310;9.642;2023-04-15T13:16:34;15.80;34.60
78649;DHT22;67962;47.310;9.642;2023-04-15T13:19:00;15.80;31.90
78649;DHT22;67962;47.310;9.642;2023-04-15T13:21:26;15.70;32.40
78649;DHT22;67962;47.310;9.642;2023-04-15T13:23:53;15.80;33.20
78649;DHT22;67962;47.310;9.642;2023-04-15T13:26:19;16.00;34.40
78649;DHT22;67962;47.310;9.642;2023-04-15T13:28:45;16.10;30.60
78649;DHT22;67962;47.310;9.642;2023-04-15T13:31:11;16.00;32.30
78649;DHT22;67962;47.310;9.642;2023-04-15T13:33:37;16.10;33.40
78649;DHT22;67962;47.310;9.642;2023-04-15T13:36:02;16.20;31.00
78649;DHT22;67962;47.310;9.642;2023-04-15T13:38:28;16.30;33.30
78649;DHT22;67962;47.310;9.642;2023-04-15T13:40:54;16.40;31.60
78649;DHT22;67962;47.310;9.642;2023-04-15T13:43:20;16.40;30.90
78649;DHT22;67962;47.310;9.642;2023-04-15T13:45:46;16.40;29.60
78649;DHT22;67962;47.310;9.642;2023-04-15T13:48:12;16.30;28.60
78649;DHT22;67962;47.310;9.642;2023-04-15T13:50:38;16.20;28.70
78649;DHT22;67962;47.310;9.642;2023-04-15T13:53:03;16.20;27.90
78649;DHT22;67962;47.310;9.642;2023-04-15T13:55:29;16.20;29.00
78649;DHT22;67962;47.310;9.642;2023-04-15T13:57:55;16.20;29.30
78649;DHT22;67962;47.310;9.642;2023-04-15T14:00:21;16.30;31.00
78649;DHT22;67962;47.310;9.642;2023-04-15T14:02:47;16.40;32.20
78649;DHT22;67962;47.310;9.642;2023-04-15T14:05:13;16.40;32.40
78649;DHT22;67962;47.310;9.642;2023-04-15T14:07:39;16.40;32.50
78649;DHT22;67962;47.310;9.642;2023-04-15T14:10:05;16.40;31.30
78649;DHT22;67962;47.310;9.642;2023-04-15T14:12:31;16.50;28.00
78649;DHT22;67962;47.310;9.642;2023-04-15T14:14:57;16.30;29.50
78649;DHT22;67962;47.310;9.642;2023-04-15T14:17:23;16.30;29.50
78649;DHT22;67962;47.310;9.642;2023-04-15T14:19:49;16.40;25.70
78649;DHT22;67962;47.310;9.642;2023-04-15T14:22:14;16.20;27.00
78649;DHT22;67962;47.310;9.642;2023-04-15T14:24:41;15.90;28.10
78649;DHT22;67962;47.310;9.642;2023-04-15T14:27:07;15.90;28.80
78649;DHT22;67962;47.310;9.642;2023-04-15T14:29:33;15.90;27.90
78649;DHT22;67962;47.310;9.642;2023-04-15T14:31:59;15.80;26.60
78649;DHT22;67962;47.310;9.642;2023-04-15T14:34:25;15.70;27.50
78649;DHT22;67962;47.310;9.642;2023-04-15T14:36:51;15.70;26.70
78649;DHT22;67962;47.310;9.642;2023-04-15T14:39:19;15.60;28.30
78649;DHT22;67962;47.310;9.642;2023-04-15T14:41:45;15.40;28.20
78649;DHT22;67962;47.310;9.642;2023-04-15T14:44:11;15.40;28.70
78649;DHT22;67962;47.310;9.642;2023-04-15T14:46:38;15.50;27.10
78649;DHT22;67962;47.310;9.642;2023-04-15T14:49:05;15.50;29.20
78649;DHT22;67962;47.310;9.642;2023-04-15T14:51:31;15.50;30.10
78649;DHT22;67962;47.310;9.642;2023-04-15T14:53:57;15.70;30.50
78649;DHT22;67962;47.310;9.642;2023-04-15T14:56:23;15.70;30.00
78649;DHT22;67962;47.310;9.642;2023-04-15T14:58:48;15.70;30.90
78649;DHT22;67962;47.310;9.642;2023-04-15T15:01:17;15.70;30.50
78649;DHT22;67962;47.310;9.642;2023-04-15T15:03:43;15.50;30.20
78649;DHT22;67962;47.310;9.642;2023-04-15T15:06:09;15.70;30.40
78649;DHT22;67962;47.310;9.642;2023-04-15T15:08:35;15.60;29.30
78649;DHT22;67962;47.310;9.642;2023-04-15T15:11:01;15.70;30.20
78649;DHT22;67962;47.310;9.642;2023-04-15T15:13:27;15.80;31.00
78649;DHT22;67962;47.310;9.642;2023-04-15T15:15:53;15.70;30.60
78649;DHT22;67962;47.310;9.642;2023-04-15T15:18:19;15.80;30.40
78649;DHT22;67962;47.310;9.642;2023-04-15T15:20:45;15.70;31.50
78649;DHT22;67962;47.310;9.642;2023-04-15T15:23:11;15.60;32.80
78649;DHT22;67962;47.310;9.642;2023-04-15T15:25:37;15.40;32.10
78649;DHT22;67962;47.310;9.642;2023-04-15T15:28:02;15.30;31.00
78649;DHT22;67962;47.310;9.642;2023-04-15T15:30:28;15.30;33.00
78649;DHT22;67962;47.310;9.642;2023-04-15T15:32:55;15.20;35.60
78649;DHT22;67962;47.310;9.642;2023-04-15T15:35:20;15.00;35.10
78649;DHT22;67962;47.310;9.642;2023-04-15T15:37:47;14.90;36.60
78649;DHT22;67962;47.310;9.642;2023-04-15T15:40:13;14.90;37.20
78649;DHT22;67962;47.310;9.642;2023-04-15T15:42:39;14.90;36.60
78649;DHT22;67962;47.310;9.642;2023-04-15T15:45:05;15.00;36.80